Accueil
METAR-TAF:

METAR-TAF

Aéroports :

Aéroport international Léopold-Sédar-Senghor

Dakar, Sénégal

latitude: 14-44N, longitude: 017-30W, altitude: 27 m

Observation

Le bulletin a été fait il y a 40 minutes, à 14:00 UTC
Vent 12 kt de nord-est
Température 28°C
Humidité 35%
Pression 1012 hPa
Visibilité: 2200 m
poussière généralisée,

METAR: GOOY 231400Z 04012KT 2200 DU NSC 28/11 Q1012

Heure: 14:40 (14:40 UTC)

Prévision

Le bulletin a été fait il y a 3 heures et 40 minutes, à 11:00 UTC
Prévision valable du 23 à 12 UTC au 24 à 18 UTC
Vent 14 kt de nord-est
Visibilité: 3000 m
poussière généralisée,

TAF: GOOY 231100Z 2312/2418 05014KT 3000 DU NSC

Observations et prévisions météorologiques de plus de 4000 aéroports (messages METAR et TAF).

Les stations disponibles sont représentées par des disques jaunes et rouges sur la carte.

Passer la souris dessus pour voir le nom de la station.

Cliquer dessus pour voir les observations et prévisions météorologiques.

Pour changer de carte: cliquez sur les boutons verts avec une croix noire pour zoomer, sur le bouton vert avec un tiret pour effectuer un zoom arrière, ou sur les flèches vertes pour les cartes adjacentes.


METAR-TAF: